createdAt,value
2022-10-23T00:01:45.154Z,67.87
2022-10-23T00:04:14.715Z,67.80
2022-10-23T00:06:43.367Z,67.88
2022-10-23T00:09:17.975Z,67.71
2022-10-23T00:11:48.574Z,67.89
2022-10-23T00:14:17.645Z,67.89
2022-10-23T00:16:45.746Z,68.80
2022-10-23T00:19:13.838Z,69.03
2022-10-23T00:21:41.822Z,69.50
2022-10-23T00:26:42.826Z,67.64
2022-10-23T00:29:12.265Z,68.34
2022-10-23T00:31:40.065Z,68.46
2022-10-23T00:34:09.169Z,69.12
2022-10-23T00:36:38.601Z,70.24
2022-10-23T00:39:07.025Z,69.67
2022-10-23T00:41:34.632Z,68.14
2022-10-23T00:44:07.065Z,67.42
2022-10-23T00:46:37.742Z,67.94
2022-10-23T00:49:06.988Z,68.99
2022-10-23T00:51:39.377Z,69.11
2022-10-23T00:54:24.844Z,68.93
2022-10-23T00:56:55.545Z,69.47
2022-10-23T00:59:23.336Z,69.05
2022-10-23T01:01:52.788Z,68.58
2022-10-23T01:04:21.018Z,67.63
2022-10-23T01:06:59.447Z,68.01
2022-10-23T01:09:32.675Z,69.27
2022-10-23T01:12:10.011Z,67.67
2022-10-23T01:14:43.973Z,67.34
2022-10-23T01:17:19.646Z,67.46
2022-10-23T01:20:02.333Z,68.13
2022-10-23T01:22:47.792Z,68.45
2022-10-23T01:25:24.637Z,68.60
2022-10-23T01:28:01.198Z,68.33
2022-10-23T01:30:30.819Z,68.86
2022-10-23T01:33:05.542Z,68.00
2022-10-23T01:35:38.097Z,68.08
2022-10-23T01:38:12.382Z,68.29
2022-10-23T01:40:47.780Z,67.68
2022-10-23T01:43:20.995Z,67.39
2022-10-23T01:45:52.049Z,67.45
2022-10-23T01:48:25.670Z,67.39
2022-10-23T01:50:56.435Z,67.26
2022-10-23T01:53:27.038Z,67.67
2022-10-23T01:55:56.389Z,68.14
2022-10-23T01:58:27.465Z,66.86
2022-10-23T02:01:00.218Z,66.70
2022-10-23T02:03:30.751Z,68.01
2022-10-23T02:05:58.817Z,68.79
2022-10-23T02:08:26.603Z,68.57
2022-10-23T02:11:03.374Z,68.78
2022-10-23T02:13:39.223Z,66.77
2022-10-23T02:16:16.575Z,66.38
2022-10-23T02:18:52.401Z,66.50
2022-10-23T02:21:28.497Z,66.34
2022-10-23T02:24:00.490Z,66.05
2022-10-23T02:26:35.211Z,67.20
2022-10-23T02:29:10.036Z,66.67
2022-10-23T02:31:37.908Z,66.63
2022-10-23T02:34:05.687Z,66.92
2022-10-23T02:36:33.285Z,67.30
2022-10-23T02:39:00.900Z,67.35
2022-10-23T02:41:40.548Z,67.55
2022-10-23T02:44:24.271Z,67.77
2022-10-23T02:46:58.516Z,68.02
2022-10-23T02:49:32.575Z,68.10
2022-10-23T02:52:09.831Z,66.86
2022-10-23T02:55:04.011Z,66.55
2022-10-23T02:57:35.902Z,67.06
2022-10-23T03:00:09.070Z,67.33
2022-10-23T03:02:40.820Z,66.75
2022-10-23T03:05:12.209Z,68.24
2022-10-23T03:07:40.870Z,67.69
2022-10-23T03:10:10.213Z,66.93
2022-10-23T03:12:38.830Z,66.31
2022-10-23T03:15:09.281Z,67.02
2022-10-23T03:17:36.878Z,67.19
2022-10-23T03:20:05.021Z,67.08
2022-10-23T03:22:32.635Z,67.48
2022-10-23T03:25:00.248Z,67.74
2022-10-23T03:29:56.421Z,67.53
2022-10-23T03:32:25.361Z,66.89
2022-10-23T03:34:52.988Z,66.78
2022-10-23T03:37:20.584Z,66.24
2022-10-23T03:39:48.153Z,66.97
2022-10-23T03:42:15.778Z,67.79
2022-10-23T03:44:43.435Z,68.21
2022-10-23T03:47:11.958Z,66.98
2022-10-23T03:49:41.036Z,68.06
2022-10-23T03:52:09.359Z,68.69
2022-10-23T03:54:36.970Z,67.38
2022-10-23T03:57:04.811Z,67.22
2022-10-23T03:59:32.456Z,67.26
2022-10-23T04:02:00.263Z,67.01
2022-10-23T04:04:28.203Z,66.94
2022-10-23T04:06:57.153Z,67.44
2022-10-23T04:09:24.852Z,67.04
2022-10-23T04:11:52.459Z,67.34
2022-10-23T04:14:20.035Z,66.65
2022-10-23T04:16:47.570Z,66.26
2022-10-23T04:19:17.140Z,66.87
2022-10-23T04:21:44.842Z,66.17
2022-10-23T04:24:14.024Z,66.15
2022-10-23T04:26:41.742Z,66.81
2022-10-23T04:29:09.332Z,66.55
2022-10-23T04:31:36.931Z,66.73
2022-10-23T04:36:37.134Z,66.57
2022-10-23T04:39:04.921Z,66.74
2022-10-23T04:41:33.812Z,67.46
2022-10-23T04:44:01.423Z,67.91
2022-10-23T04:46:29.220Z,67.89
2022-10-23T04:48:56.782Z,66.99
2022-10-23T04:51:24.512Z,67.31
2022-10-23T04:53:52.060Z,67.89
2022-10-23T04:56:19.642Z,67.82
2022-10-23T04:58:48.564Z,68.31
2022-10-23T05:01:16.310Z,68.69
2022-10-23T05:03:44.140Z,68.79
2022-10-23T05:06:11.750Z,67.90
2022-10-23T05:08:39.387Z,68.81
2022-10-23T05:11:07.019Z,69.15
2022-10-23T05:13:34.581Z,69.74
2022-10-23T05:16:04.047Z,70.35
2022-10-23T05:18:35.704Z,68.04
2022-10-23T05:21:07.573Z,66.43
2022-10-23T05:23:37.524Z,65.91
2022-10-23T05:26:06.233Z,66.03
2022-10-23T05:28:33.804Z,66.31
2022-10-23T05:31:04.310Z,65.71
2022-10-23T05:33:32.838Z,65.18
2022-10-23T05:36:01.701Z,65.17
2022-10-23T05:38:31.495Z,65.62
2022-10-23T05:40:59.140Z,65.66
2022-10-23T05:43:27.312Z,65.85
2022-10-23T05:45:54.972Z,66.42
2022-10-23T05:48:34.315Z,66.89
2022-10-23T05:51:06.576Z,67.22
2022-10-23T05:53:36.125Z,67.98
2022-10-23T05:56:08.094Z,68.18
2022-10-23T05:58:36.215Z,68.81
2022-10-23T06:01:07.201Z,68.48
2022-10-23T06:03:36.824Z,68.55
2022-10-23T06:06:05.159Z,67.14
2022-10-23T06:08:33.511Z,67.26
2022-10-23T06:11:07.269Z,67.28
2022-10-23T06:13:35.046Z,66.47
2022-10-23T06:16:09.931Z,64.97
2022-10-23T06:18:39.050Z,65.22
2022-10-23T06:21:07.170Z,64.39
2022-10-23T06:23:36.237Z,65.23
2022-10-23T06:26:04.234Z,66.31
2022-10-23T06:28:32.383Z,67.18
2022-10-23T06:31:00.019Z,66.96
2022-10-23T06:33:27.564Z,67.06
2022-10-23T06:35:58.287Z,67.81
2022-10-23T06:38:25.889Z,68.55
2022-10-23T06:40:54.082Z,69.33
2022-10-23T06:43:21.776Z,69.61
2022-10-23T06:45:49.619Z,70.20
2022-10-23T06:48:17.477Z,70.72
2022-10-23T06:50:45.069Z,70.86
2022-10-23T06:53:14.144Z,70.94
2022-10-23T06:55:41.717Z,71.14
2022-10-23T06:58:10.775Z,71.58
2022-10-23T07:00:38.910Z,71.46
2022-10-23T07:03:08.446Z,71.39
2022-10-23T07:05:36.315Z,71.56
2022-10-23T07:08:06.042Z,71.83
2022-10-23T07:10:35.398Z,71.79
2022-10-23T07:13:03.223Z,71.99
2022-10-23T07:15:31.042Z,72.05
2022-10-23T07:17:58.680Z,71.65
2022-10-23T07:20:26.408Z,71.19
2022-10-23T07:22:55.297Z,70.94
2022-10-23T07:25:23.745Z,70.77
2022-10-23T07:27:55.316Z,70.77
2022-10-23T07:30:24.235Z,70.39
2022-10-23T07:32:52.253Z,70.56
2022-10-23T07:35:19.987Z,69.68
2022-10-23T07:37:48.555Z,68.07
2022-10-23T07:40:17.254Z,67.31
2022-10-23T07:42:44.810Z,67.40
2022-10-23T07:45:13.758Z,66.04
2022-10-23T07:47:41.682Z,65.35
2022-10-23T07:50:10.407Z,64.74
2022-10-23T07:52:37.984Z,65.78
2022-10-23T07:55:06.352Z,66.25
2022-10-23T07:57:33.968Z,66.28
2022-10-23T08:00:01.555Z,66.99
2022-10-23T08:02:30.479Z,67.27
2022-10-23T08:04:58.049Z,67.48
2022-10-23T08:07:25.626Z,64.53
2022-10-23T08:09:53.646Z,63.68
2022-10-23T08:12:21.264Z,64.13
2022-10-23T08:14:48.961Z,64.63
2022-10-23T08:17:16.525Z,65.55
2022-10-23T08:19:47.119Z,65.88
2022-10-23T08:22:14.963Z,66.08
2022-10-23T08:24:42.549Z,65.53
2022-10-23T08:27:10.094Z,65.83
2022-10-23T08:29:37.707Z,66.07
2022-10-23T08:32:05.703Z,66.87
2022-10-23T08:34:33.264Z,66.89
2022-10-23T08:37:02.223Z,66.72
2022-10-23T08:39:29.791Z,64.84
2022-10-23T08:41:57.419Z,65.18
2022-10-23T08:44:31.999Z,65.85
2022-10-23T08:47:06.586Z,63.97
2022-10-23T08:49:48.739Z,63.43
2022-10-23T08:52:24.403Z,62.61
2022-10-23T08:55:03.670Z,62.97
2022-10-23T08:57:40.036Z,63.83
2022-10-23T09:00:14.904Z,64.50
2022-10-23T09:02:45.991Z,65.63
2022-10-23T09:05:18.127Z,65.44
2022-10-23T09:08:00.900Z,66.09
2022-10-23T09:10:58.334Z,66.31
2022-10-23T09:13:45.871Z,65.31
2022-10-23T09:16:20.407Z,65.43
2022-10-23T09:18:50.662Z,63.10
2022-10-23T09:21:18.482Z,61.98
2022-10-23T09:23:47.394Z,62.14
2022-10-23T09:26:16.804Z,62.27
2022-10-23T09:28:48.947Z,62.62
2022-10-23T09:31:17.512Z,63.19
2022-10-23T09:33:55.723Z,63.72
2022-10-23T09:36:24.473Z,63.09
2022-10-23T09:38:55.121Z,64.23
2022-10-23T09:41:25.684Z,63.61
2022-10-23T09:44:04.040Z,62.76
2022-10-23T09:46:39.450Z,63.41
2022-10-23T09:49:08.067Z,63.77
2022-10-23T09:51:35.785Z,63.71
2022-10-23T09:54:05.057Z,61.52
2022-10-23T09:56:35.629Z,60.69
2022-10-23T09:59:06.330Z,60.72
2022-10-23T10:01:36.136Z,61.83
2022-10-23T10:04:03.846Z,62.54
2022-10-23T10:06:33.634Z,62.10
2022-10-23T10:09:06.877Z,63.09
2022-10-23T10:11:38.566Z,63.59
2022-10-23T10:14:28.015Z,64.31
2022-10-23T10:17:01.772Z,63.89
2022-10-23T10:19:40.509Z,62.34
2022-10-23T10:22:19.179Z,62.00
2022-10-23T10:24:57.211Z,60.47
2022-10-23T10:27:42.622Z,60.50
2022-10-23T10:30:16.594Z,61.72
2022-10-23T10:32:51.297Z,62.76
2022-10-23T10:35:38.387Z,61.44
2022-10-23T10:38:21.670Z,61.47
2022-10-23T10:41:15.281Z,60.04
2022-10-23T10:43:52.853Z,60.16
2022-10-23T10:46:31.598Z,61.26
2022-10-23T10:49:08.959Z,60.84
2022-10-23T10:51:48.866Z,59.70
2022-10-23T10:54:44.287Z,60.74
2022-10-23T10:57:26.746Z,61.49
2022-10-23T11:00:03.594Z,62.45
2022-10-23T11:02:38.908Z,62.80
2022-10-23T11:05:19.341Z,63.43
2022-10-23T11:07:55.730Z,64.05
2022-10-23T11:10:23.540Z,64.06
2022-10-23T11:12:52.945Z,64.29
2022-10-23T11:15:26.131Z,64.57
2022-10-23T11:17:57.839Z,64.52
2022-10-23T11:20:39.900Z,64.87
2022-10-23T11:23:31.977Z,64.94
2022-10-23T11:26:16.203Z,64.82
2022-10-23T11:29:03.817Z,64.82
2022-10-23T11:31:39.949Z,64.91
2022-10-23T11:34:35.110Z,65.30
2022-10-23T11:37:04.738Z,65.34
2022-10-23T11:39:34.058Z,65.20
2022-10-23T11:42:14.335Z,64.97
2022-10-23T11:44:45.207Z,65.01
2022-10-23T11:47:36.354Z,64.94
2022-10-23T11:50:15.621Z,65.22
2022-10-23T11:53:13.028Z,65.38
2022-10-23T11:55:57.137Z,65.24
2022-10-23T11:58:31.432Z,64.69
2022-10-23T12:01:05.421Z,64.76
2022-10-23T12:03:41.822Z,64.23
2022-10-23T12:06:23.633Z,63.72
2022-10-23T12:08:55.065Z,62.11
2022-10-23T12:11:28.241Z,60.72
2022-10-23T12:13:56.192Z,60.04
2022-10-23T12:16:35.626Z,60.39
2022-10-23T12:19:18.818Z,60.93
2022-10-23T12:21:47.619Z,61.57
2022-10-23T12:24:31.887Z,62.43
2022-10-23T12:27:09.119Z,62.42
2022-10-23T12:29:53.563Z,63.05
2022-10-23T12:32:34.982Z,63.38
2022-10-23T12:35:34.007Z,63.82
2022-10-23T12:38:14.189Z,64.18
2022-10-23T12:40:42.031Z,64.35
2022-10-23T12:43:24.370Z,64.33
2022-10-23T12:45:52.614Z,63.85
2022-10-23T12:48:23.199Z,63.29
2022-10-23T12:50:52.469Z,63.51
2022-10-23T12:53:21.347Z,63.40
2022-10-23T12:55:52.632Z,63.77
2022-10-23T12:58:21.587Z,63.78
2022-10-23T13:00:54.269Z,64.02
2022-10-23T13:03:26.008Z,64.57
2022-10-23T13:05:55.754Z,64.06
2022-10-23T13:08:24.697Z,63.82
2022-10-23T13:10:52.406Z,63.78
2022-10-23T13:13:24.107Z,63.88
2022-10-23T13:15:51.962Z,64.21
2022-10-23T13:18:19.762Z,63.91
2022-10-23T13:20:59.982Z,62.82
2022-10-23T13:23:32.095Z,60.06
2022-10-23T13:26:01.426Z,58.85
2022-10-23T13:28:33.230Z,58.55
2022-10-23T13:31:23.562Z,59.39
2022-10-23T13:33:53.137Z,60.28
2022-10-23T13:36:24.352Z,60.32
2022-10-23T13:39:03.759Z,60.43
2022-10-23T13:41:37.546Z,60.75
2022-10-23T13:44:05.490Z,60.27
2022-10-23T13:46:33.175Z,61.29
2022-10-23T13:49:00.856Z,62.65
2022-10-23T13:51:32.017Z,63.02
2022-10-23T13:53:59.601Z,63.24
2022-10-23T13:56:28.587Z,63.16
2022-10-23T13:58:56.151Z,63.02
2022-10-23T14:01:27.229Z,63.17
2022-10-23T14:03:55.893Z,62.98
2022-10-23T14:06:23.581Z,63.23
2022-10-23T14:08:52.947Z,63.42
2022-10-23T14:11:21.988Z,63.34
2022-10-23T14:13:49.966Z,63.36
2022-10-23T14:16:20.521Z,63.56
2022-10-23T14:18:48.609Z,63.54
2022-10-23T14:21:19.800Z,63.81
2022-10-23T14:23:48.096Z,64.00
2022-10-23T14:26:19.375Z,64.24
2022-10-23T14:28:47.129Z,64.50
2022-10-23T14:31:15.961Z,64.65
2022-10-23T14:33:44.425Z,64.73
2022-10-23T14:36:12.572Z,64.79
2022-10-23T14:38:40.395Z,64.98
2022-10-23T14:41:12.831Z,65.28
2022-10-23T14:43:42.943Z,65.43
2022-10-23T14:46:12.615Z,65.76
2022-10-23T14:48:42.376Z,65.95
2022-10-23T14:51:18.807Z,66.04
2022-10-23T14:53:46.831Z,66.13
2022-10-23T14:56:15.209Z,66.04
2022-10-23T14:58:44.137Z,66.03
2022-10-23T15:01:11.890Z,66.01
2022-10-23T15:03:39.621Z,66.12
2022-10-23T15:06:08.729Z,65.77
2022-10-23T15:08:36.941Z,65.50
2022-10-23T15:11:08.916Z,64.81
2022-10-23T15:13:39.327Z,63.83
2022-10-23T15:16:10.093Z,64.21
2022-10-23T15:21:11.042Z,64.13
2022-10-23T15:23:41.031Z,63.85
2022-10-23T15:26:10.955Z,64.53
2022-10-23T15:28:39.091Z,64.66
2022-10-23T15:31:24.268Z,65.06
2022-10-23T15:33:51.807Z,65.36
2022-10-23T15:36:19.514Z,65.87
2022-10-23T15:38:47.115Z,65.91
2022-10-23T15:41:16.482Z,66.01
2022-10-23T15:43:44.294Z,66.20
2022-10-23T15:46:13.255Z,66.32
2022-10-23T15:48:40.833Z,66.40
2022-10-23T15:51:08.382Z,65.90
2022-10-23T15:53:36.247Z,66.22
2022-10-23T15:56:03.925Z,66.13
2022-10-23T15:58:31.533Z,65.33
2022-10-23T16:01:02.923Z,64.77
2022-10-23T16:03:32.155Z,63.95
2022-10-23T16:05:59.782Z,63.77
2022-10-23T16:08:27.321Z,63.76
2022-10-23T16:10:54.905Z,63.65
2022-10-23T16:13:22.508Z,64.05
2022-10-23T16:15:50.073Z,64.23
2022-10-23T16:18:18.739Z,64.20
2022-10-23T16:20:48.015Z,63.96
2022-10-23T16:23:15.599Z,64.07
2022-10-23T16:25:43.227Z,63.99
2022-10-23T16:28:10.834Z,64.02
2022-10-23T16:30:41.697Z,63.66
2022-10-23T16:33:09.336Z,64.53
2022-10-23T16:35:37.278Z,64.31
2022-10-23T16:38:06.431Z,64.41
2022-10-23T16:40:34.040Z,64.25
2022-10-23T16:43:01.580Z,64.50
2022-10-23T16:45:29.190Z,64.63
2022-10-23T16:47:56.951Z,64.76
2022-10-23T16:50:24.579Z,65.24
2022-10-23T16:52:55.483Z,64.80
2022-10-23T16:55:24.908Z,64.62
2022-10-23T16:57:52.535Z,65.24
2022-10-23T17:00:22.025Z,65.46
2022-10-23T17:02:49.724Z,65.30
2022-10-23T17:05:17.424Z,64.99
2022-10-23T17:07:45.202Z,65.43
2022-10-23T17:10:13.049Z,65.81
2022-10-23T17:12:41.988Z,65.05
2022-10-23T17:15:10.993Z,64.24
2022-10-23T17:17:38.738Z,64.15
2022-10-23T17:20:07.224Z,63.22
2022-10-23T17:22:35.855Z,63.52
2022-10-23T17:25:03.641Z,63.13
2022-10-23T17:27:31.224Z,63.18
2022-10-23T17:30:00.159Z,63.13
2022-10-23T17:32:27.812Z,63.40
2022-10-23T17:34:55.409Z,63.62
2022-10-23T17:37:23.023Z,64.00
2022-10-23T17:39:50.658Z,64.18
2022-10-23T17:42:18.269Z,64.46
2022-10-23T17:44:45.887Z,64.85
2022-10-23T17:47:34.577Z,65.16
2022-10-23T17:50:02.470Z,65.28
2022-10-23T17:52:30.082Z,65.52
2022-10-23T17:54:57.649Z,65.62
2022-10-23T17:57:25.252Z,65.74
2022-10-23T17:59:52.839Z,65.75
2022-10-23T18:02:20.637Z,66.09
2022-10-23T18:04:49.655Z,66.87
2022-10-23T18:07:17.362Z,67.28
2022-10-23T18:09:46.072Z,68.02
2022-10-23T18:12:13.684Z,68.30
2022-10-23T18:14:41.254Z,68.67
2022-10-23T18:17:08.868Z,67.84
2022-10-23T18:19:36.466Z,66.84
2022-10-23T18:22:05.507Z,66.95
2022-10-23T18:24:33.350Z,67.15
2022-10-23T18:27:01.051Z,67.91
2022-10-23T18:29:28.623Z,68.45
2022-10-23T18:31:56.227Z,68.53
2022-10-23T18:34:25.666Z,68.22
2022-10-23T18:36:55.265Z,68.60
2022-10-23T18:39:25.962Z,68.95
2022-10-23T18:41:56.015Z,69.07
2022-10-23T18:44:25.035Z,68.61
2022-10-23T18:46:52.922Z,67.99
2022-10-23T18:49:21.237Z,68.33
2022-10-23T18:51:49.728Z,68.92
2022-10-23T18:54:18.734Z,69.08
2022-10-23T18:56:48.151Z,69.33
2022-10-23T18:59:18.328Z,69.25
2022-10-23T19:01:46.149Z,69.41
2022-10-23T19:04:15.870Z,69.66
2022-10-23T19:06:43.695Z,69.87
2022-10-23T19:09:14.689Z,70.01
2022-10-23T19:11:43.441Z,69.96
2022-10-23T19:14:12.534Z,69.89
2022-10-23T19:16:44.930Z,69.93
2022-10-23T19:19:16.802Z,69.90
2022-10-23T19:21:45.348Z,70.07
2022-10-23T19:24:16.320Z,70.01
2022-10-23T19:26:45.022Z,70.22
2022-10-23T19:29:18.112Z,70.14
2022-10-23T19:31:49.168Z,70.57
2022-10-23T19:34:19.709Z,70.34
2022-10-23T19:36:47.505Z,70.45
2022-10-23T19:39:15.384Z,71.21
2022-10-23T19:41:43.040Z,71.20
2022-10-23T19:44:10.641Z,71.31
2022-10-23T19:46:39.594Z,71.46
2022-10-23T19:49:08.827Z,71.50
2022-10-23T19:51:36.987Z,71.43
2022-10-23T19:54:05.140Z,71.30
2022-10-23T19:56:32.700Z,71.15
2022-10-23T19:59:00.361Z,71.20
2022-10-23T20:01:28.042Z,71.28
2022-10-23T20:03:57.570Z,71.27
2022-10-23T20:06:27.922Z,71.37
2022-10-23T20:08:56.343Z,71.81
2022-10-23T20:11:28.056Z,71.73
2022-10-23T20:13:56.886Z,71.41
2022-10-23T20:16:27.149Z,71.46
2022-10-23T20:18:54.890Z,69.62
2022-10-23T20:21:24.650Z,69.63
2022-10-23T20:23:52.720Z,69.63
2022-10-23T20:26:23.112Z,69.71
2022-10-23T20:28:54.015Z,69.78
2022-10-23T20:31:23.172Z,69.84
2022-10-23T20:33:51.529Z,69.36
2022-10-23T20:36:26.153Z,68.73
2022-10-23T20:38:54.482Z,66.35
2022-10-23T20:41:24.945Z,65.84
2022-10-23T20:43:52.668Z,65.37
2022-10-23T20:46:20.375Z,65.43
2022-10-23T20:48:47.955Z,64.58
2022-10-23T20:51:17.825Z,64.86
2022-10-23T20:53:47.767Z,65.84
2022-10-23T20:56:17.161Z,64.02
2022-10-23T20:58:45.010Z,63.04
2022-10-23T21:01:16.279Z,64.16
2022-10-23T21:03:45.022Z,62.63
2022-10-23T21:06:14.673Z,62.13
2022-10-23T21:08:43.257Z,61.78
2022-10-23T21:11:14.224Z,62.88
2022-10-23T21:13:42.747Z,64.09
2022-10-23T21:16:15.014Z,64.84
2022-10-23T21:18:46.867Z,65.51
2022-10-23T21:21:17.041Z,66.50
2022-10-23T21:23:45.077Z,66.88
2022-10-23T21:26:14.628Z,67.27
2022-10-23T21:31:37.277Z,67.03
2022-10-23T21:34:05.660Z,67.13
2022-10-23T21:36:34.226Z,67.36
2022-10-23T21:39:03.330Z,67.92
2022-10-23T21:41:32.884Z,68.12
2022-10-23T21:44:02.227Z,68.02
2022-10-23T21:46:33.721Z,67.30
2022-10-23T21:49:02.725Z,66.96
2022-10-23T21:51:42.447Z,66.50
2022-10-23T21:54:17.199Z,65.98
2022-10-23T21:56:47.422Z,65.43
2022-10-23T21:59:20.139Z,65.13
2022-10-23T22:01:54.109Z,65.04
2022-10-23T22:04:23.491Z,64.47
2022-10-23T22:06:54.188Z,64.55
2022-10-23T22:09:22.966Z,64.73
2022-10-23T22:11:51.048Z,64.50
2022-10-23T22:14:19.460Z,64.56
2022-10-23T22:16:47.650Z,64.42
2022-10-23T22:19:17.025Z,64.46
2022-10-23T22:21:49.079Z,64.76
2022-10-23T22:24:17.861Z,64.36
2022-10-23T22:26:49.211Z,64.00
2022-10-23T22:29:20.537Z,64.50
2022-10-23T22:31:49.825Z,64.36
2022-10-23T22:34:34.786Z,64.35
2022-10-23T22:37:12.758Z,64.50
2022-10-23T22:39:41.774Z,64.61
2022-10-23T22:42:10.092Z,64.33
2022-10-23T22:44:39.643Z,64.21
2022-10-23T22:47:07.442Z,64.37
2022-10-23T22:49:35.118Z,64.20
2022-10-23T22:52:02.706Z,64.22
2022-10-23T22:54:31.763Z,64.52
2022-10-23T22:56:59.645Z,63.96
2022-10-23T22:59:30.064Z,64.27
2022-10-23T23:02:00.544Z,63.83
2022-10-23T23:04:38.955Z,64.00
2022-10-23T23:07:08.375Z,63.84
2022-10-23T23:09:41.184Z,63.51
2022-10-23T23:12:10.336Z,64.08
2022-10-23T23:14:40.894Z,63.85
2022-10-23T23:17:10.390Z,63.62
2022-10-23T23:19:38.186Z,63.51
2022-10-23T23:22:06.015Z,63.01
2022-10-23T23:24:33.965Z,62.78
2022-10-23T23:27:03.012Z,62.33
2022-10-23T23:29:30.627Z,62.16
2022-10-23T23:31:58.299Z,62.15
2022-10-23T23:34:26.143Z,61.97
2022-10-23T23:36:54.136Z,61.76
2022-10-23T23:39:21.810Z,61.72
2022-10-23T23:41:49.413Z,61.79
2022-10-23T23:44:18.420Z,61.71
2022-10-23T23:46:46.125Z,61.54
2022-10-23T23:49:13.792Z,61.55
2022-10-23T23:51:41.998Z,61.27
2022-10-23T23:54:09.690Z,61.07
2022-10-23T23:56:37.289Z,61.21
2022-10-23T23:59:05.236Z,61.59
